createdAt,value
2023-05-07T00:00:35.087Z,24.70
2023-05-07T00:03:03.052Z,24.70
2023-05-07T00:05:32.527Z,24.70
2023-05-07T00:08:00.352Z,24.80
2023-05-07T00:10:28.300Z,24.70
2023-05-07T00:12:56.348Z,24.70
2023-05-07T00:15:24.149Z,24.70
2023-05-07T00:17:52.009Z,24.70
2023-05-07T00:20:19.781Z,24.70
2023-05-07T00:22:48.872Z,24.70
2023-05-07T00:25:16.760Z,24.70
2023-05-07T00:27:44.576Z,24.70
2023-05-07T00:30:13.647Z,24.70
2023-05-07T00:32:41.673Z,24.70
2023-05-07T00:35:10.877Z,24.70
2023-05-07T00:37:39.154Z,24.70
2023-05-07T00:40:10.061Z,24.70
2023-05-07T00:42:38.644Z,24.70
2023-05-07T00:45:08.698Z,24.70
2023-05-07T00:47:36.655Z,24.70
2023-05-07T00:50:05.323Z,24.70
2023-05-07T00:52:33.184Z,24.70
2023-05-07T00:55:06.230Z,24.70
2023-05-07T00:57:39.069Z,24.70
2023-05-07T01:00:09.924Z,24.70
2023-05-07T01:02:38.334Z,24.70
2023-05-07T01:05:08.075Z,24.70
2023-05-07T01:07:37.513Z,24.70
2023-05-07T01:10:06.411Z,24.70
2023-05-07T01:12:36.501Z,24.70
2023-05-07T01:15:05.492Z,24.70
2023-05-07T01:17:35.930Z,24.70
2023-05-07T01:20:06.038Z,24.70
2023-05-07T01:22:37.455Z,24.70
2023-05-07T01:25:06.598Z,24.70
2023-05-07T01:27:36.282Z,24.70
2023-05-07T01:30:04.804Z,24.70
2023-05-07T01:32:45.840Z,24.70
2023-05-07T01:35:32.318Z,24.70
2023-05-07T01:38:03.281Z,24.70
2023-05-07T01:40:31.196Z,24.70
2023-05-07T01:42:59.544Z,24.70
2023-05-07T01:45:27.895Z,24.70
2023-05-07T01:47:56.208Z,24.70
2023-05-07T01:50:24.838Z,24.70
2023-05-07T01:52:53.060Z,24.60
2023-05-07T01:55:22.218Z,24.70
2023-05-07T01:57:50.236Z,24.70
2023-05-07T02:00:19.947Z,24.70
2023-05-07T02:02:47.923Z,24.70
2023-05-07T02:05:26.236Z,24.70
2023-05-07T02:08:00.793Z,24.70
2023-05-07T02:10:31.337Z,24.70
2023-05-07T02:13:00.634Z,24.70
2023-05-07T02:15:28.777Z,24.70
2023-05-07T02:18:02.572Z,24.70
2023-05-07T02:20:30.780Z,24.70
2023-05-07T02:22:58.632Z,24.70
2023-05-07T02:25:28.580Z,24.70
2023-05-07T02:27:57.703Z,24.70
2023-05-07T02:30:35.384Z,24.70
2023-05-07T02:33:03.526Z,24.70
2023-05-07T02:35:31.346Z,24.70
2023-05-07T02:37:59.181Z,24.70
2023-05-07T02:40:27.429Z,24.70
2023-05-07T02:42:57.300Z,24.70
2023-05-07T02:45:25.189Z,24.70
2023-05-07T02:47:56.069Z,24.70
2023-05-07T02:50:23.976Z,24.70
2023-05-07T02:52:51.797Z,24.70
2023-05-07T02:55:19.758Z,24.70
2023-05-07T02:57:47.563Z,24.60
2023-05-07T03:00:19.077Z,24.70
2023-05-07T03:03:06.425Z,24.60
2023-05-07T03:05:34.552Z,24.70
2023-05-07T03:08:02.357Z,24.60
2023-05-07T03:10:30.138Z,24.60
2023-05-07T03:12:58.010Z,24.60
2023-05-07T03:15:27.267Z,24.60
2023-05-07T03:17:55.334Z,24.60
2023-05-07T03:20:23.476Z,24.60
2023-05-07T03:22:51.385Z,24.60
2023-05-07T03:25:19.184Z,24.60
2023-05-07T03:27:46.949Z,24.60
2023-05-07T03:30:15.169Z,24.60
2023-05-07T03:32:45.301Z,24.60
2023-05-07T03:35:14.112Z,24.60
2023-05-07T03:37:42.461Z,24.60
2023-05-07T03:40:13.530Z,24.60
2023-05-07T03:42:54.975Z,24.60
2023-05-07T03:45:26.746Z,24.60
2023-05-07T03:48:08.020Z,24.60
2023-05-07T03:50:35.942Z,24.60
2023-05-07T03:53:03.802Z,24.60
2023-05-07T03:55:33.021Z,24.60
2023-05-07T03:58:01.951Z,24.60
2023-05-07T04:00:34.422Z,24.60
2023-05-07T04:03:02.242Z,24.60
2023-05-07T04:05:33.790Z,24.60
2023-05-07T04:08:04.633Z,24.60
2023-05-07T04:10:41.500Z,24.60
2023-05-07T04:13:12.050Z,24.60
2023-05-07T04:15:39.895Z,24.60
2023-05-07T04:18:11.378Z,24.60
2023-05-07T04:20:41.408Z,24.60
2023-05-07T04:23:13.324Z,24.60
2023-05-07T04:25:42.484Z,24.60
2023-05-07T04:28:19.576Z,24.60
2023-05-07T04:30:48.203Z,24.60
2023-05-07T04:33:17.693Z,24.60
2023-05-07T04:35:47.493Z,24.60
2023-05-07T04:38:16.139Z,24.60
2023-05-07T04:40:44.492Z,24.60
2023-05-07T04:43:16.977Z,24.60
2023-05-07T04:45:50.298Z,24.60
2023-05-07T04:48:20.096Z,24.60
2023-05-07T04:50:51.315Z,24.60
2023-05-07T04:53:20.759Z,24.60
2023-05-07T04:55:49.748Z,24.60
2023-05-07T04:58:18.507Z,24.60
2023-05-07T05:00:48.731Z,24.60
2023-05-07T05:03:16.587Z,24.60
2023-05-07T05:05:44.433Z,24.60
2023-05-07T05:08:13.708Z,24.60
2023-05-07T05:10:44.316Z,24.60
2023-05-07T05:13:13.794Z,24.70
2023-05-07T05:15:42.571Z,24.70
2023-05-07T05:18:10.499Z,24.70
2023-05-07T05:20:40.634Z,24.70
2023-05-07T05:23:09.907Z,24.70
2023-05-07T05:25:41.119Z,24.70
2023-05-07T05:28:11.603Z,24.70
2023-05-07T05:30:39.545Z,24.70
2023-05-07T05:33:07.387Z,24.70
2023-05-07T05:35:36.338Z,24.70
2023-05-07T05:38:06.227Z,24.70
2023-05-07T05:40:35.357Z,24.70
2023-05-07T05:43:05.034Z,24.70
2023-05-07T05:45:33.084Z,24.70
2023-05-07T05:48:01.170Z,24.70
2023-05-07T05:50:30.454Z,24.70
2023-05-07T05:53:00.338Z,24.70
2023-05-07T05:55:29.580Z,24.70
2023-05-07T05:57:57.884Z,24.70
2023-05-07T06:00:27.603Z,24.70
2023-05-07T06:03:03.618Z,24.70
2023-05-07T06:05:31.543Z,24.70
2023-05-07T06:07:59.933Z,24.70
2023-05-07T06:10:32.475Z,24.70
2023-05-07T06:13:01.221Z,24.70
2023-05-07T06:15:31.686Z,24.70
2023-05-07T06:18:04.581Z,24.70
2023-05-07T06:20:32.585Z,24.70
2023-05-07T06:23:02.405Z,24.70
2023-05-07T06:25:31.765Z,24.70
2023-05-07T06:27:59.741Z,24.70
2023-05-07T06:30:28.764Z,24.70
2023-05-07T06:32:58.509Z,24.70
2023-05-07T06:35:27.560Z,24.70
2023-05-07T06:37:55.527Z,24.70
2023-05-07T06:40:26.704Z,24.70
2023-05-07T06:42:54.568Z,24.70
2023-05-07T06:45:48.626Z,24.70
2023-05-07T06:48:18.094Z,24.70
2023-05-07T06:51:01.884Z,24.70
2023-05-07T06:53:32.784Z,24.70
2023-05-07T06:56:02.405Z,24.70
2023-05-07T06:58:30.322Z,24.70
2023-05-07T07:00:58.215Z,24.70
2023-05-07T07:03:27.502Z,24.70
2023-05-07T07:05:57.140Z,24.70
2023-05-07T07:08:25.588Z,24.70
2023-05-07T07:10:53.801Z,24.80
2023-05-07T07:13:21.749Z,24.70
2023-05-07T07:15:49.796Z,24.70
2023-05-07T07:18:19.292Z,24.80
2023-05-07T07:20:51.146Z,24.70
2023-05-07T07:23:18.929Z,24.70
2023-05-07T07:25:47.247Z,24.80
2023-05-07T07:28:15.294Z,24.80
2023-05-07T07:30:43.210Z,24.70
2023-05-07T07:33:11.867Z,24.70
2023-05-07T07:35:40.337Z,24.80
2023-05-07T07:38:09.968Z,24.80
2023-05-07T07:40:38.051Z,24.80
2023-05-07T07:43:07.939Z,24.80
2023-05-07T07:45:36.281Z,24.80
2023-05-07T07:48:05.542Z,24.70
2023-05-07T07:50:44.705Z,24.80
2023-05-07T07:53:16.363Z,24.80
2023-05-07T07:55:44.673Z,24.80
2023-05-07T07:58:15.497Z,24.80
2023-05-07T08:00:43.524Z,24.80
2023-05-07T08:03:12.893Z,24.80
2023-05-07T08:05:45.049Z,24.80
2023-05-07T08:08:12.828Z,24.80
2023-05-07T08:10:43.619Z,24.80
2023-05-07T08:13:19.670Z,24.80
2023-05-07T08:15:48.209Z,24.80
2023-05-07T08:18:16.995Z,24.80
2023-05-07T08:20:46.639Z,24.80
2023-05-07T08:23:18.723Z,24.80
2023-05-07T08:25:48.756Z,24.80
2023-05-07T08:28:17.674Z,24.80
2023-05-07T08:30:45.543Z,24.80
2023-05-07T08:33:13.411Z,24.90
2023-05-07T08:35:41.471Z,24.90
2023-05-07T08:38:10.475Z,24.90
2023-05-07T08:40:41.759Z,24.90
2023-05-07T08:43:16.607Z,24.90
2023-05-07T08:45:47.755Z,24.90
2023-05-07T08:48:19.191Z,24.90
2023-05-07T08:50:54.163Z,24.90
2023-05-07T08:53:22.685Z,24.90
2023-05-07T08:55:52.250Z,24.90
2023-05-07T08:58:21.504Z,24.90
2023-05-07T09:00:49.629Z,24.90
2023-05-07T09:03:18.318Z,24.90
2023-05-07T09:05:49.778Z,24.90
2023-05-07T09:08:19.906Z,24.90
2023-05-07T09:10:50.402Z,24.90
2023-05-07T09:13:20.732Z,25.00
2023-05-07T09:15:48.714Z,25.00
2023-05-07T09:18:17.166Z,25.00
2023-05-07T09:20:47.296Z,24.90
2023-05-07T09:23:16.257Z,25.00
2023-05-07T09:25:45.506Z,25.00
2023-05-07T09:28:21.600Z,25.00
2023-05-07T09:30:49.757Z,24.90
2023-05-07T09:33:18.052Z,25.00
2023-05-07T09:35:53.276Z,25.00
2023-05-07T09:38:23.773Z,25.00
2023-05-07T09:41:04.896Z,25.00
2023-05-07T09:43:37.309Z,25.00
2023-05-07T09:46:10.370Z,25.00
2023-05-07T09:48:40.895Z,25.00
2023-05-07T09:51:27.767Z,25.00
2023-05-07T09:53:58.002Z,25.00
2023-05-07T09:56:27.579Z,25.00
2023-05-07T09:58:59.256Z,25.00
2023-05-07T10:01:27.809Z,25.00
2023-05-07T10:03:56.631Z,25.00
2023-05-07T10:06:26.439Z,25.00
2023-05-07T10:08:54.825Z,25.00
2023-05-07T10:11:24.002Z,25.00
2023-05-07T10:13:54.965Z,25.00
2023-05-07T10:16:25.377Z,25.10
2023-05-07T10:18:53.633Z,25.10
2023-05-07T10:21:26.763Z,25.10
2023-05-07T10:24:01.667Z,25.10
2023-05-07T10:26:33.216Z,25.10
2023-05-07T10:29:07.409Z,25.10
2023-05-07T10:31:56.195Z,25.10
2023-05-07T10:34:28.416Z,25.10
2023-05-07T10:36:58.174Z,25.10
2023-05-07T10:39:27.383Z,25.20
2023-05-07T10:41:55.512Z,25.20
2023-05-07T10:44:30.531Z,25.20
2023-05-07T10:47:10.479Z,25.20
2023-05-07T10:50:26.010Z,25.20
2023-05-07T10:53:29.497Z,25.20
2023-05-07T10:56:29.291Z,25.20
2023-05-07T10:59:34.705Z,25.20
2023-05-07T11:02:12.100Z,25.30
2023-05-07T11:05:21.562Z,25.30
2023-05-07T11:07:58.621Z,25.30
2023-05-07T11:10:50.764Z,25.30
2023-05-07T11:13:44.630Z,25.30
2023-05-07T11:16:21.602Z,25.30
2023-05-07T11:18:55.732Z,25.30
2023-05-07T11:21:38.178Z,25.30
2023-05-07T11:24:22.983Z,25.30
2023-05-07T11:26:57.989Z,25.30
2023-05-07T11:29:28.455Z,25.30
2023-05-07T11:32:02.051Z,25.30
2023-05-07T11:34:35.736Z,25.30
2023-05-07T11:37:04.449Z,25.30
2023-05-07T11:40:08.008Z,25.30
2023-05-07T11:42:38.397Z,25.30
2023-05-07T11:45:07.683Z,25.30
2023-05-07T11:47:36.184Z,25.30
2023-05-07T11:50:06.921Z,25.30
2023-05-07T11:52:35.131Z,25.30
2023-05-07T11:55:04.590Z,25.30
2023-05-07T11:57:36.157Z,25.40
2023-05-07T12:00:06.239Z,25.40
2023-05-07T12:02:43.347Z,25.30
2023-05-07T12:05:11.633Z,25.40
2023-05-07T12:07:39.640Z,25.40
2023-05-07T12:10:08.056Z,25.40
2023-05-07T12:12:42.684Z,25.40
2023-05-07T12:15:11.432Z,25.40
2023-05-07T12:17:40.027Z,25.40
2023-05-07T12:20:09.372Z,25.40
2023-05-07T12:22:37.883Z,25.40
2023-05-07T12:25:06.539Z,25.50
2023-05-07T12:27:34.507Z,25.40
2023-05-07T12:30:03.822Z,25.40
2023-05-07T12:32:31.655Z,25.50
2023-05-07T12:34:59.497Z,25.40
2023-05-07T12:37:30.460Z,25.50
2023-05-07T12:40:08.257Z,25.50
2023-05-07T12:42:38.470Z,25.50
2023-05-07T12:45:15.491Z,25.50
2023-05-07T12:47:46.790Z,25.50
2023-05-07T12:50:15.265Z,25.50
2023-05-07T12:52:43.112Z,25.50
2023-05-07T12:55:14.238Z,25.50
2023-05-07T12:57:43.287Z,25.50
2023-05-07T13:00:13.804Z,25.50
2023-05-07T13:02:45.284Z,25.50
2023-05-07T13:05:13.758Z,25.50
2023-05-07T13:07:42.657Z,25.50
2023-05-07T13:10:11.400Z,25.50
2023-05-07T13:12:39.158Z,25.50
2023-05-07T13:15:07.948Z,25.50
2023-05-07T13:17:37.114Z,25.60
2023-05-07T13:20:06.366Z,25.60
2023-05-07T13:22:34.207Z,25.60
2023-05-07T13:25:01.986Z,25.60
2023-05-07T13:27:31.711Z,25.60
2023-05-07T13:29:59.473Z,25.60
2023-05-07T13:32:27.296Z,25.60
2023-05-07T13:34:56.406Z,25.60
2023-05-07T13:37:24.205Z,25.60
2023-05-07T13:39:51.974Z,25.60
2023-05-07T13:42:19.905Z,25.60
2023-05-07T13:44:47.651Z,25.60
2023-05-07T13:47:15.786Z,25.60
2023-05-07T13:49:43.639Z,25.60
2023-05-07T13:52:12.745Z,25.50
2023-05-07T13:54:41.345Z,25.50
2023-05-07T13:57:09.168Z,25.50
2023-05-07T13:59:36.938Z,25.50
2023-05-07T14:02:04.811Z,25.50
2023-05-07T14:04:33.003Z,25.50
2023-05-07T14:07:00.973Z,25.50
2023-05-07T14:09:30.095Z,25.50
2023-05-07T14:11:57.936Z,25.50
2023-05-07T14:14:25.767Z,25.50
2023-05-07T14:16:53.585Z,25.50
2023-05-07T14:19:23.594Z,25.50
2023-05-07T14:21:51.362Z,25.50
2023-05-07T14:24:30.830Z,25.50
2023-05-07T14:27:03.911Z,25.50
2023-05-07T14:29:31.682Z,25.50
2023-05-07T14:31:59.453Z,25.50
2023-05-07T14:34:27.211Z,25.50
2023-05-07T14:36:55.025Z,25.50
2023-05-07T14:39:22.850Z,25.50
2023-05-07T14:41:50.653Z,25.40
2023-05-07T14:44:19.828Z,25.50
2023-05-07T14:46:47.615Z,25.50
2023-05-07T14:49:17.958Z,25.50
2023-05-07T14:51:46.700Z,25.40
2023-05-07T14:54:14.739Z,25.50
2023-05-07T14:56:43.501Z,25.40
2023-05-07T14:59:11.486Z,25.40
2023-05-07T15:01:43.774Z,25.50
2023-05-07T15:04:11.704Z,25.40
2023-05-07T15:06:39.562Z,25.40
2023-05-07T15:09:07.386Z,25.40
2023-05-07T15:11:35.346Z,25.40
2023-05-07T15:14:04.918Z,25.40
2023-05-07T15:16:33.628Z,25.40
2023-05-07T15:19:02.774Z,25.40
2023-05-07T15:21:31.811Z,25.40
2023-05-07T15:23:59.574Z,25.40
2023-05-07T15:26:27.433Z,25.40
2023-05-07T15:28:57.561Z,25.40
2023-05-07T15:31:26.094Z,25.40
2023-05-07T15:33:54.378Z,25.40
2023-05-07T15:36:23.747Z,25.40
2023-05-07T15:38:51.490Z,25.40
2023-05-07T15:41:19.319Z,25.40
2023-05-07T15:43:49.430Z,25.40
2023-05-07T15:46:19.798Z,25.30
2023-05-07T15:48:47.750Z,25.40
2023-05-07T15:51:15.630Z,25.30
2023-05-07T15:53:45.062Z,25.40
2023-05-07T15:56:12.828Z,25.30
2023-05-07T15:58:40.770Z,25.40
2023-05-07T16:01:08.594Z,25.30
2023-05-07T16:03:36.879Z,25.40
2023-05-07T16:06:05.845Z,25.30
2023-05-07T16:08:34.156Z,25.30
2023-05-07T16:11:03.278Z,25.40
2023-05-07T16:13:31.065Z,25.30
2023-05-07T16:15:59.844Z,25.30
2023-05-07T16:18:27.824Z,25.30
2023-05-07T16:20:55.824Z,25.30
2023-05-07T16:23:23.643Z,25.30
2023-05-07T16:25:51.514Z,25.30
2023-05-07T16:28:21.072Z,25.30
2023-05-07T16:30:49.353Z,25.30
2023-05-07T16:33:17.809Z,25.30
2023-05-07T16:35:47.610Z,25.30
2023-05-07T16:38:15.945Z,25.30
2023-05-07T16:40:44.185Z,25.30
2023-05-07T16:43:12.063Z,25.30
2023-05-07T16:45:41.191Z,25.30
2023-05-07T16:48:09.266Z,25.30
2023-05-07T16:50:37.157Z,25.40
2023-05-07T16:53:06.984Z,25.30
2023-05-07T16:55:38.681Z,25.40
2023-05-07T16:58:06.796Z,25.40
2023-05-07T17:00:48.523Z,25.40
2023-05-07T17:03:20.057Z,25.30
2023-05-07T17:05:48.126Z,25.30
2023-05-07T17:08:15.940Z,25.40
2023-05-07T17:10:45.554Z,25.30
2023-05-07T17:13:13.507Z,25.40
2023-05-07T17:15:43.359Z,25.40
2023-05-07T17:18:11.272Z,25.30
2023-05-07T17:20:40.986Z,25.30
2023-05-07T17:23:08.773Z,25.30
2023-05-07T17:25:37.520Z,25.30
2023-05-07T17:28:05.589Z,25.30
2023-05-07T17:30:33.345Z,25.30
2023-05-07T17:33:12.992Z,25.30
2023-05-07T17:35:48.994Z,25.30
2023-05-07T17:38:16.772Z,25.30
2023-05-07T17:40:44.550Z,25.30
2023-05-07T17:43:12.315Z,25.30
2023-05-07T17:45:40.123Z,25.30
2023-05-07T17:48:08.216Z,25.30
2023-05-07T17:50:36.016Z,25.20
2023-05-07T17:53:05.909Z,25.30
2023-05-07T17:55:33.725Z,25.20
2023-05-07T17:58:03.165Z,25.20
2023-05-07T18:00:31.044Z,25.20
2023-05-07T18:03:00.043Z,25.20
2023-05-07T18:05:28.328Z,25.20
2023-05-07T18:07:56.714Z,25.20
2023-05-07T18:10:26.241Z,25.20
2023-05-07T18:12:54.016Z,25.20
2023-05-07T18:15:21.931Z,25.20
2023-05-07T18:17:49.712Z,25.20
2023-05-07T18:20:17.660Z,25.20
2023-05-07T18:22:45.506Z,25.20
2023-05-07T18:25:13.522Z,25.20
2023-05-07T18:27:42.668Z,25.20
2023-05-07T18:30:12.028Z,25.20
2023-05-07T18:32:40.233Z,25.20
2023-05-07T18:35:08.781Z,25.20
2023-05-07T18:37:36.669Z,25.20
2023-05-07T18:40:05.761Z,25.20
2023-05-07T18:42:36.279Z,25.10
2023-05-07T18:45:07.163Z,25.10
2023-05-07T18:47:34.985Z,25.10
2023-05-07T18:50:02.822Z,25.10
2023-05-07T18:52:30.744Z,25.10
2023-05-07T18:54:58.551Z,25.10
2023-05-07T18:57:27.583Z,25.10
2023-05-07T18:59:55.534Z,25.10
2023-05-07T19:02:24.764Z,25.10
2023-05-07T19:04:52.645Z,25.10
2023-05-07T19:07:20.537Z,25.10
2023-05-07T19:10:01.166Z,25.10
2023-05-07T19:12:32.485Z,25.10
2023-05-07T19:15:00.250Z,25.10
2023-05-07T19:17:29.381Z,25.10
2023-05-07T19:19:57.180Z,25.10
2023-05-07T19:22:25.026Z,25.10
2023-05-07T19:24:52.814Z,25.10
2023-05-07T19:27:20.601Z,25.10
2023-05-07T19:29:48.372Z,25.10
2023-05-07T19:32:16.117Z,25.10
2023-05-07T19:34:45.245Z,25.10
2023-05-07T19:37:12.995Z,25.10
2023-05-07T19:39:41.325Z,25.20
2023-05-07T19:42:09.089Z,25.10
2023-05-07T19:44:36.890Z,25.20
2023-05-07T19:47:05.609Z,25.20
2023-05-07T19:49:33.540Z,25.20
2023-05-07T19:52:02.667Z,25.10
2023-05-07T19:54:30.681Z,25.20
2023-05-07T19:56:58.656Z,25.20
2023-05-07T19:59:27.353Z,25.20
2023-05-07T20:01:55.426Z,25.20
2023-05-07T20:04:28.967Z,25.20
2023-05-07T20:06:57.365Z,25.10
2023-05-07T20:09:26.486Z,25.10
2023-05-07T20:11:54.268Z,25.10
2023-05-07T20:14:22.045Z,25.10
2023-05-07T20:16:50.053Z,25.10
2023-05-07T20:19:18.575Z,25.10
2023-05-07T20:21:46.407Z,25.10
2023-05-07T20:24:14.251Z,25.10
2023-05-07T20:26:43.366Z,25.10
2023-05-07T20:29:11.138Z,25.10
2023-05-07T20:31:38.992Z,25.10
2023-05-07T20:34:07.239Z,25.10
2023-05-07T20:36:35.880Z,25.10
2023-05-07T20:39:04.124Z,25.10
2023-05-07T20:41:32.051Z,25.10
2023-05-07T20:44:02.017Z,25.10
2023-05-07T20:46:30.200Z,25.10
2023-05-07T20:48:58.484Z,25.10
2023-05-07T20:51:27.108Z,25.10
2023-05-07T20:53:54.972Z,25.10
2023-05-07T20:56:22.795Z,25.10
2023-05-07T20:58:50.564Z,25.10
2023-05-07T21:01:19.752Z,25.00
2023-05-07T21:03:47.515Z,25.00
2023-05-07T21:06:15.306Z,25.00
2023-05-07T21:08:43.077Z,25.00
2023-05-07T21:11:12.927Z,25.00
2023-05-07T21:13:40.683Z,25.00
2023-05-07T21:16:09.998Z,25.00
2023-05-07T21:18:39.227Z,25.00
2023-05-07T21:21:09.162Z,25.00
2023-05-07T21:23:37.584Z,25.00
2023-05-07T21:26:05.461Z,25.00
2023-05-07T21:28:33.294Z,25.00
2023-05-07T21:31:01.096Z,25.00
2023-05-07T21:33:28.850Z,25.00
2023-05-07T21:35:57.974Z,25.00
2023-05-07T21:38:25.751Z,25.00
2023-05-07T21:40:53.540Z,25.00
2023-05-07T21:43:21.315Z,25.00
2023-05-07T21:45:49.082Z,25.00
2023-05-07T21:48:18.452Z,25.00
2023-05-07T21:50:46.269Z,25.00
2023-05-07T21:53:15.464Z,25.00
2023-05-07T21:55:43.238Z,25.00
2023-05-07T21:58:11.072Z,25.00
2023-05-07T22:00:38.804Z,25.00
2023-05-07T22:03:06.673Z,25.00
2023-05-07T22:05:34.479Z,25.00
2023-05-07T22:08:02.291Z,25.00
2023-05-07T22:10:31.747Z,25.00
2023-05-07T22:12:59.587Z,25.00
2023-05-07T22:15:27.369Z,25.00
2023-05-07T22:17:55.183Z,25.00
2023-05-07T22:20:22.955Z,25.00
2023-05-07T22:22:52.785Z,25.00
2023-05-07T22:25:21.005Z,25.00
2023-05-07T22:27:50.773Z,25.00
2023-05-07T22:30:18.890Z,25.00
2023-05-07T22:32:46.785Z,25.00
2023-05-07T22:35:15.070Z,25.00
2023-05-07T22:37:42.920Z,25.00
2023-05-07T22:40:11.872Z,25.00
2023-05-07T22:42:39.927Z,25.00
2023-05-07T22:45:10.256Z,25.00
2023-05-07T22:47:38.082Z,25.00
2023-05-07T22:50:06.941Z,25.00
2023-05-07T22:52:34.812Z,25.00
2023-05-07T22:55:02.639Z,25.00
2023-05-07T22:57:30.418Z,25.00
2023-05-07T22:59:58.660Z,25.00
2023-05-07T23:02:28.917Z,25.00
2023-05-07T23:04:59.646Z,25.00
2023-05-07T23:07:27.408Z,25.00
2023-05-07T23:09:55.174Z,25.00
2023-05-07T23:12:22.980Z,25.00
2023-05-07T23:14:50.884Z,25.00
2023-05-07T23:17:18.969Z,25.00
2023-05-07T23:19:48.184Z,25.00
2023-05-07T23:22:16.783Z,25.00
2023-05-07T23:24:44.746Z,25.00
2023-05-07T23:27:12.586Z,25.00
2023-05-07T23:29:40.478Z,24.90
2023-05-07T23:32:08.267Z,25.00
2023-05-07T23:34:36.081Z,25.00
2023-05-07T23:37:05.250Z,24.90
2023-05-07T23:39:33.013Z,24.90
2023-05-07T23:42:00.768Z,25.00
2023-05-07T23:44:28.504Z,24.90
2023-05-07T23:46:56.338Z,25.00
2023-05-07T23:49:24.147Z,24.90
2023-05-07T23:51:51.986Z,24.90
2023-05-07T23:54:21.103Z,24.90
2023-05-07T23:56:48.901Z,24.90
2023-05-07T23:59:16.697Z,24.90
